Time;durP1;ratioP1;P1;durP2;ratioP2;P2;SDS_P1;SDS_P2;PMS_P1;PMS_P2;Temp;Humidity;BMP_temperature;BMP_pressure;BME280_temperature;BME280_humidity;BME280_pressure;Samples;Min_cycle;Max_cycle;Signal;HPM_P1;HPM_P2
2023/03/04 00:01:45;;;;;;;36.20;24.63;;;4.20;99.90;;;;;;4987342;28;20204;-74
2023/03/04 00:04:10;;;;;;;36.60;25.40;;;4.20;99.90;;;;;;4985401;28;20180;-74
2023/03/04 00:06:36;;;;;;;33.23;23.37;;;4.20;99.90;;;;;;4985017;28;20184;-71
2023/03/04 00:09:03;;;;;;;33.33;23.93;;;4.20;99.90;;;;;;4984671;28;21037;-70
2023/03/04 00:11:29;;;;;;;40.13;27.37;;;4.10;99.90;;;;;;4985075;28;20220;-71
2023/03/04 00:13:55;;;;;;;37.90;26.50;;;4.10;99.90;;;;;;4984620;28;20427;-73
2023/03/04 00:16:21;;;;;;;33.67;24.47;;;4.20;99.90;;;;;;4984624;28;20442;-70
2023/03/04 00:18:47;;;;;;;36.13;25.63;;;4.20;99.90;;;;;;4984880;28;20914;-73
2023/03/04 00:21:12;;;;;;;36.73;25.23;;;4.20;99.90;;;;;;4971455;28;20209;-72
2023/03/04 00:23:40;;;;;;;37.77;27.53;;;4.20;99.90;;;;;;4984894;28;20833;-72
2023/03/04 00:26:06;;;;;;;34.03;25.43;;;4.10;99.90;;;;;;4977640;28;20355;-70
2023/03/04 00:28:32;;;;;;;35.77;25.40;;;4.00;99.90;;;;;;4987450;28;20422;-74
2023/03/04 00:30:58;;;;;;;38.73;24.73;;;4.00;99.90;;;;;;4987019;28;20568;-70
2023/03/04 00:33:23;;;;;;;32.57;22.00;;;4.10;99.90;;;;;;4984690;28;20259;-70
2023/03/04 00:35:49;;;;;;;41.20;25.30;;;3.90;99.90;;;;;;4984509;28;20567;-71
2023/03/04 00:38:14;;;;;;;31.90;23.00;;;4.00;99.90;;;;;;4985918;28;20552;-73
2023/03/04 00:40:40;;;;;;;33.93;24.77;;;3.80;99.90;;;;;;4986024;28;20187;-73
2023/03/04 00:43:05;;;;;;;36.63;24.87;;;3.80;99.90;;;;;;4986046;28;20275;-70
2023/03/04 00:45:31;;;;;;;39.30;27.60;;;3.80;99.90;;;;;;4976707;28;20192;-72
2023/03/04 00:47:56;;;;;;;34.47;24.43;;;3.80;99.90;;;;;;4985217;28;20192;-70
2023/03/04 00:50:22;;;;;;;36.03;23.97;;;3.90;99.90;;;;;;4985977;28;20185;-71
2023/03/04 00:52:47;;;;;;;38.70;24.80;;;3.90;99.90;;;;;;4983770;28;20236;-73
2023/03/04 00:55:13;;;;;;;38.40;27.27;;;3.90;99.90;;;;;;4984468;28;20698;-72
2023/03/04 00:57:39;;;;;;;33.20;23.60;;;3.80;99.90;;;;;;4982654;28;20553;-69
2023/03/04 01:00:05;;;;;;;40.80;25.70;;;3.80;99.90;;;;;;4984331;28;20223;-71
2023/03/04 01:02:30;;;;;;;39.20;27.13;;;3.80;99.90;;;;;;4983777;28;20208;-71
2023/03/04 01:04:56;;;;;;;32.67;24.97;;;3.80;99.90;;;;;;4984334;28;20856;-72
2023/03/04 01:07:21;;;;;;;32.80;23.33;;;3.70;99.90;;;;;;4985060;28;20211;-73
2023/03/04 01:09:47;;;;;;;34.70;24.53;;;3.70;99.90;;;;;;4986354;28;20283;-73
2023/03/04 01:12:13;;;;;;;37.90;24.50;;;3.70;99.90;;;;;;4987720;28;20254;-72
2023/03/04 01:14:38;;;;;;;42.33;26.93;;;3.70;99.90;;;;;;4989978;28;20200;-72
2023/03/04 01:17:04;;;;;;;35.07;24.50;;;3.70;99.90;;;;;;4989794;28;20184;-73
2023/03/04 01:19:29;;;;;;;35.37;25.47;;;3.70;99.90;;;;;;4988149;28;20184;-72
2023/03/04 01:21:55;;;;;;;39.73;25.90;;;3.70;99.90;;;;;;4987902;28;20200;-72
2023/03/04 01:24:20;;;;;;;35.17;23.40;;;3.70;99.90;;;;;;4988655;28;20242;-73
2023/03/04 01:26:46;;;;;;;34.57;23.90;;;3.70;99.90;;;;;;4990074;28;20256;-73
2023/03/04 01:29:11;;;;;;;36.50;24.23;;;3.50;99.90;;;;;;4973204;28;20493;-71
2023/03/04 01:31:37;;;;;;;36.00;24.30;;;3.50;99.90;;;;;;4974076;28;20706;-73
2023/03/04 01:34:03;;;;;;;33.13;25.03;;;3.40;99.90;;;;;;4989540;28;20231;-71
2023/03/04 01:36:28;;;;;;;32.10;24.03;;;3.40;99.90;;;;;;4989720;28;20238;-72
2023/03/04 01:38:54;;;;;;;39.80;24.73;;;3.30;99.90;;;;;;4989289;28;20180;-72
2023/03/04 01:41:23;;;;;;;39.13;26.37;;;3.30;99.90;;;;;;4989682;28;20299;-73
2023/03/04 01:43:49;;;;;;;39.53;28.03;;;3.30;99.90;;;;;;4988142;28;20184;-73
2023/03/04 01:46:16;;;;;;;36.73;25.37;;;3.20;99.90;;;;;;4989250;28;20485;-71
2023/03/04 01:48:43;;;;;;;39.27;24.83;;;3.30;99.90;;;;;;4989037;28;20776;-73
2023/03/04 01:51:15;;;;;;;36.17;25.70;;;3.30;99.90;;;;;;4989196;28;20436;-72
2023/03/04 01:53:41;;;;;;;34.87;23.27;;;3.30;99.90;;;;;;4973408;28;20440;-72
2023/03/04 01:56:15;;;;;;;33.70;25.73;;;3.30;99.90;;;;;;4986925;28;20424;-73
2023/03/04 01:58:42;;;;;;;39.83;24.60;;;3.30;99.90;;;;;;4987643;28;20439;-72
2023/03/04 02:01:10;;;;;;;37.70;26.13;;;3.20;99.90;;;;;;4987078;28;20431;-73
2023/03/04 02:03:36;;;;;;;33.13;22.50;;;3.30;99.90;;;;;;4986835;28;20452;-71
2023/03/04 02:06:02;;;;;;;34.30;24.10;;;3.30;99.90;;;;;;4988363;28;20408;-73
2023/03/04 02:08:28;;;;;;;34.93;24.60;;;3.20;99.90;;;;;;4982083;28;20431;-74
2023/03/04 02:10:53;;;;;;;35.90;24.93;;;3.20;99.90;;;;;;4987119;28;20209;-75
2023/03/04 02:13:19;;;;;;;38.07;25.20;;;3.20;99.90;;;;;;4987623;28;20803;-73
2023/03/04 02:15:45;;;;;;;31.60;22.00;;;3.20;99.90;;;;;;4983642;28;20819;-73
2023/03/04 02:18:17;;;;;;;32.97;23.20;;;3.10;99.90;;;;;;4988437;28;20192;-72
2023/03/04 02:21:06;;;;;;;36.67;25.60;;;3.20;99.90;;;;;;4988559;28;20415;-73
2023/03/04 02:23:40;;;;;;;38.03;23.83;;;3.10;99.90;;;;;;4987794;28;20911;-73
2023/03/04 02:26:22;;;;;;;38.53;26.23;;;2.80;99.90;;;;;;4971754;28;20864;-71
2023/03/04 02:28:50;;;;;;;33.73;23.43;;;2.80;99.90;;;;;;4988513;28;20416;-71
2023/03/04 02:31:33;;;;;;;38.40;24.73;;;2.80;99.90;;;;;;4986705;28;20718;-73
2023/03/04 02:34:02;;;;;;;36.07;24.17;;;2.70;99.90;;;;;;4986646;28;20415;-72
2023/03/04 02:36:28;;;;;;;30.50;22.40;;;2.80;99.90;;;;;;4987289;28;20411;-74
2023/03/04 02:38:59;;;;;;;35.20;25.30;;;2.90;99.90;;;;;;4987514;28;20415;-71
2023/03/04 02:41:27;;;;;;;39.20;24.87;;;2.80;99.90;;;;;;4986413;28;20459;-72
2023/03/04 02:43:55;;;;;;;36.50;25.70;;;2.90;99.90;;;;;;4986797;28;20826;-72
2023/03/04 02:46:21;;;;;;;35.50;24.87;;;2.80;99.90;;;;;;4986957;28;20929;-72
2023/03/04 02:48:48;;;;;;;39.37;26.80;;;2.70;99.90;;;;;;4986304;28;20415;-74
2023/03/04 02:51:14;;;;;;;33.93;24.27;;;2.70;99.90;;;;;;4986426;28;20493;-72
2023/03/04 02:53:40;;;;;;;35.90;25.03;;;2.70;99.90;;;;;;4987835;28;20451;-73
2023/03/04 02:56:06;;;;;;;40.37;27.23;;;2.80;99.90;;;;;;4988188;28;20469;-72
2023/03/04 02:58:31;;;;;;;32.37;22.80;;;2.80;99.90;;;;;;4987767;28;20204;-73
2023/03/04 03:00:57;;;;;;;36.37;24.60;;;2.70;99.90;;;;;;4986835;28;21069;-72
2023/03/04 03:03:23;;;;;;;37.63;25.77;;;2.80;99.90;;;;;;4988475;28;20187;-74
2023/03/04 03:05:49;;;;;;;34.20;25.03;;;2.80;99.90;;;;;;4990027;28;20499;-72
2023/03/04 03:08:14;;;;;;;34.17;23.60;;;2.80;99.90;;;;;;4990334;28;20192;-73
2023/03/04 03:10:40;;;;;;;33.50;23.70;;;2.70;99.90;;;;;;4988659;28;20659;-73
2023/03/04 03:13:05;;;;;;;29.03;24.40;;;2.70;99.90;;;;;;4987699;28;20213;-74
2023/03/04 03:15:31;;;;;;;33.13;24.70;;;2.60;99.90;;;;;;4987052;28;20295;-74
2023/03/04 03:17:57;;;;;;;31.70;20.63;;;2.50;99.90;;;;;;4986663;28;20275;-71
2023/03/04 03:20:22;;;;;;;37.00;24.17;;;2.60;99.90;;;;;;4986433;28;20172;-73
2023/03/04 03:22:48;;;;;;;32.60;22.33;;;2.60;99.90;;;;;;4969856;28;20204;-71
2023/03/04 03:25:15;;;;;;;34.67;24.23;;;2.60;99.90;;;;;;4975454;28;20189;-72
2023/03/04 03:27:41;;;;;;;34.33;24.53;;;2.50;99.90;;;;;;4976614;28;20192;-76
2023/03/04 03:30:10;;;;;;;34.23;24.07;;;2.60;99.90;;;;;;4987130;28;20434;-75
2023/03/04 03:32:35;;;;;;;34.67;23.67;;;2.60;99.90;;;;;;4986767;28;20443;-75
2023/03/04 03:35:01;;;;;;;32.30;24.10;;;2.50;99.90;;;;;;4985915;28;20510;-72
2023/03/04 03:37:27;;;;;;;31.53;24.50;;;2.60;99.90;;;;;;4972378;28;20864;-73
2023/03/04 03:39:52;;;;;;;33.73;24.07;;;2.60;99.90;;;;;;4976737;28;20189;-74
2023/03/04 03:42:18;;;;;;;31.23;23.03;;;2.50;99.90;;;;;;4974887;28;20243;-73
2023/03/04 03:44:43;;;;;;;35.20;23.90;;;2.40;99.90;;;;;;4987302;28;20181;-74
2023/03/04 03:47:09;;;;;;;31.30;23.13;;;2.40;99.90;;;;;;4987401;28;20547;-73
2023/03/04 03:49:35;;;;;;;29.90;21.97;;;2.40;99.90;;;;;;4987224;28;20180;-76
2023/03/04 03:52:00;;;;;;;27.50;19.50;;;2.40;99.90;;;;;;4986904;28;20201;-73
2023/03/04 03:54:26;;;;;;;40.10;24.60;;;2.40;99.90;;;;;;4986057;28;20479;-74
2023/03/04 03:56:51;;;;;;;36.37;23.80;;;2.30;99.90;;;;;;4986884;28;20548;-72
2023/03/04 03:59:17;;;;;;;41.47;25.37;;;2.30;99.90;;;;;;4986583;28;20211;-73
2023/03/04 04:01:42;;;;;;;38.57;25.13;;;2.30;99.90;;;;;;4987273;28;20196;-71
2023/03/04 04:04:08;;;;;;;35.40;23.80;;;2.30;99.90;;;;;;4986996;28;20180;-73
2023/03/04 04:06:33;;;;;;;36.90;23.97;;;2.30;99.90;;;;;;4986833;28;20203;-73
2023/03/04 04:08:59;;;;;;;34.20;23.20;;;2.30;99.90;;;;;;4986823;28;20192;-74
2023/03/04 04:11:25;;;;;;;27.53;20.53;;;2.30;99.90;;;;;;4987136;28;20562;-72
2023/03/04 04:13:50;;;;;;;31.57;23.10;;;2.30;99.90;;;;;;4987494;28;20198;-72
2023/03/04 04:16:16;;;;;;;33.97;21.90;;;2.20;99.90;;;;;;4986845;28;20191;-71
2023/03/04 04:18:41;;;;;;;36.43;23.70;;;2.20;99.90;;;;;;4986877;28;20545;-73
2023/03/04 04:21:07;;;;;;;32.20;22.20;;;2.20;99.90;;;;;;4985746;28;20200;-72
2023/03/04 04:23:32;;;;;;;33.20;24.00;;;2.30;99.90;;;;;;4984611;28;20256;-72
2023/03/04 04:25:58;;;;;;;27.43;20.67;;;2.30;99.90;;;;;;4984822;28;20187;-72
2023/03/04 04:28:24;;;;;;;35.00;23.73;;;2.30;99.90;;;;;;4986006;28;20184;-74
2023/03/04 04:30:50;;;;;;;30.87;20.40;;;2.30;99.90;;;;;;4986587;28;20455;-73
2023/03/04 04:33:16;;;;;;;30.80;22.10;;;2.20;99.90;;;;;;4969559;28;20185;-75
2023/03/04 04:35:41;;;;;;;25.37;20.40;;;2.20;99.90;;;;;;4986551;28;20455;-73
2023/03/04 04:38:08;;;;;;;29.07;20.70;;;2.20;99.90;;;;;;4977516;28;20457;-72
2023/03/04 04:40:33;;;;;;;35.03;24.13;;;2.20;99.90;;;;;;4983695;28;20314;-71
2023/03/04 04:42:59;;;;;;;33.43;23.03;;;2.20;99.90;;;;;;4972128;28;20570;-72
2023/03/04 04:45:25;;;;;;;33.20;22.70;;;2.20;99.90;;;;;;4983978;28;20285;-75
2023/03/04 04:47:56;;;;;;;31.77;21.33;;;2.20;99.90;;;;;;4984553;28;20185;-73
2023/03/04 04:50:22;;;;;;;29.13;19.60;;;2.10;99.90;;;;;;4979429;28;20510;-72
2023/03/04 04:52:48;;;;;;;31.63;23.20;;;2.10;99.90;;;;;;4985356;28;20450;-73
2023/03/04 04:55:13;;;;;;;36.40;24.00;;;2.10;99.90;;;;;;4985602;28;20461;-73
2023/03/04 04:57:39;;;;;;;30.17;21.73;;;2.10;99.90;;;;;;4986028;28;20358;-72
2023/03/04 05:00:05;;;;;;;29.70;21.80;;;2.00;99.90;;;;;;4986472;28;20207;-74
2023/03/04 05:02:35;;;;;;;32.73;23.10;;;2.10;99.90;;;;;;4968131;28;20196;-71
2023/03/04 05:05:01;;;;;;;26.77;19.97;;;2.10;99.90;;;;;;4976690;28;21008;-72
2023/03/04 05:07:27;;;;;;;34.83;22.70;;;2.00;99.90;;;;;;4966491;28;20416;-75
2023/03/04 05:09:52;;;;;;;33.90;23.00;;;2.00;99.90;;;;;;4983721;28;20787;-72
2023/03/04 05:12:18;;;;;;;26.07;20.00;;;2.00;99.90;;;;;;4985825;28;20210;-71
2023/03/04 05:14:43;;;;;;;30.90;21.33;;;2.00;99.90;;;;;;4985812;28;20579;-74
2023/03/04 05:17:09;;;;;;;31.90;21.90;;;1.90;99.90;;;;;;4986156;28;20234;-75
2023/03/04 05:19:34;;;;;;;37.20;23.77;;;1.90;99.90;;;;;;4985886;28;20644;-74
2023/03/04 05:22:00;;;;;;;31.70;21.00;;;1.90;99.90;;;;;;4977354;28;20682;-73
2023/03/04 05:24:25;;;;;;;36.47;23.37;;;2.00;99.90;;;;;;4981886;28;20192;-73
2023/03/04 05:26:51;;;;;;;33.47;22.00;;;1.90;99.90;;;;;;4985350;28;20180;-74
2023/03/04 05:29:16;;;;;;;35.03;23.07;;;1.80;99.90;;;;;;4983984;28;20278;-73
2023/03/04 05:31:42;;;;;;;33.60;23.30;;;1.70;99.90;;;;;;4975037;28;20208;-74
2023/03/04 05:34:08;;;;;;;37.80;22.43;;;1.80;99.90;;;;;;4983834;28;20184;-71
2023/03/04 05:36:33;;;;;;;30.83;20.93;;;1.80;99.90;;;;;;4984530;28;20404;-72
2023/03/04 05:38:59;;;;;;;34.83;23.20;;;1.80;99.90;;;;;;4985223;28;20185;-75
2023/03/04 05:41:24;;;;;;;30.40;20.60;;;1.70;99.90;;;;;;4984311;28;20227;-72
2023/03/04 05:43:50;;;;;;;29.97;20.60;;;1.80;99.90;;;;;;4984352;28;20176;-72
2023/03/04 05:46:17;;;;;;;32.90;22.10;;;1.80;99.90;;;;;;4985487;28;20204;-72
2023/03/04 05:48:43;;;;;;;29.43;20.93;;;1.70;99.90;;;;;;4985661;28;20180;-73
2023/03/04 05:51:10;;;;;;;34.27;22.50;;;1.70;99.90;;;;;;4979146;28;21079;-76
2023/03/04 05:53:36;;;;;;;34.63;25.77;;;1.70;99.90;;;;;;4974335;28;20435;-70
2023/03/04 05:56:16;;;;;;;34.87;23.93;;;1.70;99.90;;;;;;4986128;28;20477;-72
2023/03/04 05:58:42;;;;;;;30.67;21.87;;;1.60;99.90;;;;;;4989671;28;20450;-73
2023/03/04 06:01:08;;;;;;;34.70;19.90;;;1.50;99.90;;;;;;4987838;28;20451;-71
2023/03/04 06:03:34;;;;;;;35.80;23.30;;;1.60;99.90;;;;;;4989382;28;20464;-73
2023/03/04 06:05:59;;;;;;;28.60;20.17;;;1.70;99.90;;;;;;4989666;28;20208;-72
2023/03/04 06:08:26;;;;;;;37.80;22.70;;;1.80;99.90;;;;;;4989488;28;20416;-71
2023/03/04 06:10:53;;;;;;;33.73;22.37;;;1.80;99.90;;;;;;4988518;28;20200;-73
2023/03/04 06:13:19;;;;;;;34.93;22.70;;;1.90;99.90;;;;;;4988871;28;20462;-72
2023/03/04 06:15:44;;;;;;;32.43;22.23;;;2.00;99.90;;;;;;4981855;28;20958;-74
2023/03/04 06:18:10;;;;;;;34.50;23.10;;;2.00;99.90;;;;;;4987925;28;20204;-75
2023/03/04 06:20:36;;;;;;;33.87;22.67;;;2.00;99.90;;;;;;4988802;28;20186;-72
2023/03/04 06:23:02;;;;;;;34.43;21.90;;;2.10;99.90;;;;;;4988449;28;20231;-73
2023/03/04 06:25:28;;;;;;;36.03;22.23;;;2.10;99.90;;;;;;4988001;28;20216;-74
2023/03/04 06:27:53;;;;;;;33.60;21.70;;;2.00;99.90;;;;;;4986819;28;20778;-74
2023/03/04 06:30:19;;;;;;;36.13;21.67;;;2.20;99.90;;;;;;4986876;28;20648;-71
2023/03/04 06:32:46;;;;;;;33.37;21.27;;;2.30;99.90;;;;;;4986908;28;20205;-72
2023/03/04 06:35:14;;;;;;;34.93;23.37;;;2.50;99.90;;;;;;4979660;28;20427;-74
2023/03/04 06:37:40;;;;;;;32.97;21.00;;;2.50;99.90;;;;;;4971695;28;20787;-69
2023/03/04 06:40:07;;;;;;;37.30;23.63;;;2.40;99.90;;;;;;4986353;28;20430;-72
2023/03/04 06:42:33;;;;;;;28.70;20.07;;;2.30;99.90;;;;;;4984848;28;20455;-71
2023/03/04 06:44:59;;;;;;;37.03;23.67;;;2.30;99.90;;;;;;4987625;28;20562;-71
2023/03/04 06:47:24;;;;;;;50.37;30.60;;;2.40;99.90;;;;;;4989072;28;20503;-73
2023/03/04 06:49:50;;;;;;;37.40;23.67;;;2.50;99.90;;;;;;4989090;28;20271;-72
2023/03/04 06:52:15;;;;;;;35.03;24.40;;;2.60;99.90;;;;;;4988860;28;20232;-74
2023/03/04 06:54:41;;;;;;;32.90;22.90;;;2.60;99.90;;;;;;4988589;28;20557;-72
2023/03/04 06:57:07;;;;;;;35.70;25.33;;;2.50;99.90;;;;;;4990723;28;20184;-74
2023/03/04 06:59:33;;;;;;;34.00;21.87;;;2.60;99.90;;;;;;4990168;28;20715;-72
2023/03/04 07:01:59;;;;;;;38.70;26.00;;;2.40;99.90;;;;;;4988879;28;20201;-72
2023/03/04 07:04:24;;;;;;;31.53;21.77;;;2.40;99.90;;;;;;4988235;28;21230;-72
2023/03/04 07:06:50;;;;;;;37.77;25.73;;;2.30;99.90;;;;;;4987588;28;20252;-73
2023/03/04 07:09:16;;;;;;;34.37;21.87;;;2.40;99.90;;;;;;4986815;28;20173;-74
2023/03/04 07:11:42;;;;;;;34.57;24.50;;;2.40;99.90;;;;;;4983398;28;20450;-74
2023/03/04 07:14:08;;;;;;;41.50;32.17;;;2.50;99.90;;;;;;4987952;28;20953;-74
2023/03/04 07:16:35;;;;;;;33.93;22.30;;;2.40;99.90;;;;;;4987768;28;20296;-72
2023/03/04 07:19:01;;;;;;;30.97;21.33;;;2.30;99.90;;;;;;4988729;28;20510;-73
2023/03/04 07:21:27;;;;;;;36.03;24.20;;;2.20;99.90;;;;;;4988200;28;20443;-73
2023/03/04 07:23:53;;;;;;;34.60;21.60;;;2.30;99.90;;;;;;4987944;28;20416;-71
2023/03/04 07:26:19;;;;;;;32.97;22.70;;;2.30;99.90;;;;;;4987492;28;20466;-73
2023/03/04 07:28:45;;;;;;;30.97;21.50;;;2.40;99.90;;;;;;4984550;28;20188;-73
2023/03/04 07:31:19;;;;;;;39.03;24.10;;;2.40;99.90;;;;;;4987054;28;20440;-72
2023/03/04 07:33:45;;;;;;;35.50;22.40;;;2.40;99.90;;;;;;4987552;28;20918;-75
2023/03/04 07:36:13;;;;;;;32.70;21.30;;;2.30;99.90;;;;;;4987488;28;20451;-73
2023/03/04 07:38:42;;;;;;;31.93;21.70;;;2.50;99.90;;;;;;4987123;28;20185;-71
2023/03/04 07:41:07;;;;;;;29.50;20.53;;;2.80;99.90;;;;;;4987226;28;20459;-73
2023/03/04 07:43:33;;;;;;;29.60;20.60;;;2.70;99.90;;;;;;4987289;28;20918;-74
2023/03/04 07:46:00;;;;;;;29.13;20.00;;;2.70;99.90;;;;;;4987921;28;20460;-72
2023/03/04 07:48:26;;;;;;;30.87;21.43;;;2.60;99.90;;;;;;4987316;28;20183;-74
2023/03/04 07:51:06;;;;;;;37.47;24.60;;;2.70;99.90;;;;;;4969238;28;20451;-74
2023/03/04 07:53:32;;;;;;;26.40;17.97;;;2.80;99.90;;;;;;4986498;28;20427;-71
2023/03/04 07:55:58;;;;;;;30.37;20.67;;;2.90;99.90;;;;;;4986686;28;20443;-71
2023/03/04 07:58:24;;;;;;;34.90;20.30;;;2.80;99.90;;;;;;4985907;28;20828;-72
2023/03/04 08:00:49;;;;;;;33.93;21.33;;;2.70;99.90;;;;;;4987038;28;20236;-72
2023/03/04 08:03:15;;;;;;;26.17;19.47;;;2.70;99.90;;;;;;4988517;28;20506;-74
2023/03/04 08:05:41;;;;;;;28.10;19.70;;;2.60;99.90;;;;;;4987820;28;20629;-71
2023/03/04 08:08:06;;;;;;;30.70;21.40;;;2.50;99.90;;;;;;4987771;28;20908;-74
2023/03/04 08:10:32;;;;;;;30.73;20.70;;;2.60;99.90;;;;;;4987048;28;20598;-72
2023/03/04 08:12:58;;;;;;;31.27;21.87;;;2.70;99.90;;;;;;4987329;28;20584;-73
2023/03/04 08:15:26;;;;;;;33.00;22.40;;;2.60;99.90;;;;;;4987346;28;20411;-74
2023/03/04 08:17:51;;;;;;;26.50;18.93;;;2.60;99.90;;;;;;4983705;28;20302;-71
2023/03/04 08:20:17;;;;;;;32.53;22.83;;;2.70;99.90;;;;;;4979291;28;20432;-73
2023/03/04 08:22:43;;;;;;;29.33;20.77;;;2.70;99.90;;;;;;4983214;28;20458;-74
2023/03/04 08:25:09;;;;;;;25.67;19.37;;;2.50;99.90;;;;;;4986558;28;20487;-73
2023/03/04 08:27:36;;;;;;;29.90;20.37;;;2.50;99.90;;;;;;4986642;28;20173;-73
2023/03/04 08:30:03;;;;;;;26.53;19.33;;;2.60;99.90;;;;;;4986810;28;21380;-71
2023/03/04 08:32:28;;;;;;;27.90;19.80;;;2.50;99.90;;;;;;4986844;28;20833;-75
2023/03/04 08:34:55;;;;;;;28.60;20.20;;;2.70;99.90;;;;;;4986606;28;20423;-71
2023/03/04 08:37:21;;;;;;;27.87;19.77;;;2.70;99.90;;;;;;4986542;28;20211;-69
2023/03/04 08:39:47;;;;;;;28.17;19.87;;;2.60;99.90;;;;;;4986401;28;20502;-75
2023/03/04 08:42:12;;;;;;;26.83;17.90;;;2.50;99.90;;;;;;4981136;28;20779;-73
2023/03/04 08:44:38;;;;;;;26.83;18.90;;;2.60;99.90;;;;;;4986695;28;20204;-73
2023/03/04 08:47:04;;;;;;;29.03;20.23;;;2.60;99.90;;;;;;4985872;28;20193;-72
2023/03/04 08:49:30;;;;;;;31.20;20.23;;;2.60;99.90;;;;;;4986242;28;20195;-73
2023/03/04 08:51:55;;;;;;;29.67;21.03;;;2.70;99.90;;;;;;4985027;28;20475;-72
2023/03/04 08:54:21;;;;;;;36.27;21.90;;;3.00;99.90;;;;;;4985324;28;20180;-72
2023/03/04 08:56:46;;;;;;;28.87;20.47;;;3.00;99.90;;;;;;4985967;28;20181;-72
2023/03/04 08:59:12;;;;;;;27.97;20.53;;;2.80;99.90;;;;;;4986098;28;20172;-72
2023/03/04 09:01:37;;;;;;;32.67;21.40;;;2.70;99.90;;;;;;4985965;28;20287;-71
2023/03/04 09:04:03;;;;;;;28.53;19.50;;;2.90;99.90;;;;;;4985764;28;20196;-72
2023/03/04 09:06:29;;;;;;;30.20;21.20;;;3.00;99.90;;;;;;4985287;28;20563;-72
2023/03/04 09:08:54;;;;;;;29.97;20.27;;;3.20;99.90;;;;;;4985300;28;20188;-73
2023/03/04 09:11:20;;;;;;;33.87;21.67;;;3.10;99.90;;;;;;4985533;28;20721;-72
2023/03/04 09:13:45;;;;;;;31.57;22.30;;;3.30;99.90;;;;;;4985742;28;20251;-72
2023/03/04 09:16:13;;;;;;;31.07;20.70;;;3.60;99.90;;;;;;4985376;28;20666;-71
2023/03/04 09:18:39;;;;;;;32.97;21.00;;;3.50;99.90;;;;;;4985256;28;20176;-72
2023/03/04 09:21:05;;;;;;;32.77;21.90;;;3.60;99.90;;;;;;4977833;28;20969;-72
2023/03/04 09:23:31;;;;;;;31.13;22.73;;;3.60;99.90;;;;;;4985396;28;20970;-72
2023/03/04 09:25:56;;;;;;;29.33;19.47;;;3.50;99.90;;;;;;4985412;28;20554;-72
2023/03/04 09:28:22;;;;;;;31.00;20.30;;;3.60;99.90;;;;;;4985449;28;20183;-71
2023/03/04 09:30:48;;;;;;;27.77;19.77;;;3.70;99.90;;;;;;4985270;28;20197;-71
2023/03/04 09:33:13;;;;;;;25.83;19.60;;;3.90;99.90;;;;;;4979509;28;20177;-72
2023/03/04 09:35:39;;;;;;;28.07;19.30;;;3.70;99.90;;;;;;4989121;28;20192;-72
2023/03/04 09:38:05;;;;;;;26.97;18.90;;;3.70;99.90;;;;;;4989244;28;20186;-72
2023/03/04 09:40:37;;;;;;;29.40;20.40;;;3.70;99.90;;;;;;4988542;28;20187;-73
2023/03/04 09:43:05;;;;;;;30.20;21.00;;;3.80;99.90;;;;;;4988960;28;20190;-73
2023/03/04 09:45:38;;;;;;;26.23;20.40;;;3.70;99.90;;;;;;4988637;28;20486;-73
2023/03/04 09:48:05;;;;;;;28.00;19.17;;;3.60;99.90;;;;;;4972883;28;20427;-72
2023/03/04 09:50:33;;;;;;;27.50;20.23;;;3.70;99.90;;;;;;4988916;28;20442;-73
2023/03/04 09:53:13;;;;;;;26.83;19.23;;;3.60;99.90;;;;;;4989127;28;20569;-72
2023/03/04 09:55:46;;;;;;;28.47;19.77;;;3.60;99.90;;;;;;4988972;28;20914;-72
2023/03/04 09:58:11;;;;;;;32.50;21.13;;;3.80;99.90;;;;;;4989322;28;20566;-73
2023/03/04 10:00:53;;;;;;;25.23;18.70;;;3.90;99.90;;;;;;4987153;28;20539;-73
2023/03/04 10:03:58;;;;;;;31.60;21.47;;;3.80;99.90;;;;;;4987480;28;20209;-71
2023/03/04 10:06:24;;;;;;;29.20;19.73;;;3.90;99.90;;;;;;4889883;29;20490;-72
2023/03/04 10:09:04;;;;;;;28.83;20.60;;;4.00;99.90;;;;;;4890969;29;20851;-73
2023/03/04 10:11:33;;;;;;;29.97;19.67;;;4.20;99.90;;;;;;4943971;28;20216;-71
2023/03/04 10:14:15;;;;;;;29.30;22.03;;;4.20;99.90;;;;;;4986779;28;20794;-71
2023/03/04 10:16:47;;;;;;;31.30;22.30;;;4.60;99.90;;;;;;4987269;28;20488;-71
2023/03/04 10:19:12;;;;;;;28.63;20.53;;;4.40;99.90;;;;;;4987087;28;20466;-73
2023/03/04 10:21:43;;;;;;;29.93;22.30;;;4.50;99.90;;;;;;4973716;28;20534;-73
2023/03/04 10:24:14;;;;;;;28.37;21.87;;;4.50;99.90;;;;;;4986850;28;20177;-72
2023/03/04 10:26:43;;;;;;;25.70;19.87;;;4.60;99.90;;;;;;4969871;28;20474;-73
2023/03/04 10:29:17;;;;;;;31.40;22.20;;;4.90;99.90;;;;;;4987376;28;20474;-73
2023/03/04 10:31:44;;;;;;;31.53;23.07;;;4.70;99.90;;;;;;4988578;28;20431;-73
2023/03/04 10:34:11;;;;;;;29.57;21.37;;;4.40;99.90;;;;;;4987615;28;20420;-73
2023/03/04 10:36:59;;;;;;;29.70;22.80;;;4.50;99.90;;;;;;4986441;28;20420;-73
2023/03/04 10:39:34;;;;;;;28.60;21.23;;;4.40;99.90;;;;;;4988654;28;20407;-73
2023/03/04 10:42:21;;;;;;;32.07;24.23;;;4.30;99.90;;;;;;4986814;28;20462;-73
2023/03/04 10:44:56;;;;;;;30.23;22.83;;;4.60;99.90;;;;;;4986989;28;20575;-72
2023/03/04 10:47:27;;;;;;;33.93;23.73;;;4.60;99.90;;;;;;4988363;28;20775;-72
2023/03/04 10:49:54;;;;;;;32.70;24.00;;;4.80;99.90;;;;;;4980620;28;20515;-72
2023/03/04 10:52:31;;;;;;;28.97;22.50;;;4.90;99.90;;;;;;4988260;28;20431;-72
2023/03/04 10:55:04;;;;;;;30.00;24.10;;;4.80;99.90;;;;;;4987582;28;20922;-72
2023/03/04 10:57:39;;;;;;;33.00;24.93;;;4.70;99.90;;;;;;4988254;28;20511;-71
2023/03/04 11:00:16;;;;;;;33.40;25.83;;;4.80;99.90;;;;;;4988006;28;20423;-72
2023/03/04 11:02:43;;;;;;;36.27;25.13;;;5.10;99.90;;;;;;4983446;28;20488;-72
2023/03/04 11:05:18;;;;;;;36.73;26.63;;;5.20;99.90;;;;;;4987713;28;20463;-71
2023/03/04 11:07:55;;;;;;;32.30;24.67;;;4.90;99.90;;;;;;4987772;28;20399;-71
2023/03/04 11:10:35;;;;;;;34.47;26.20;;;5.10;99.90;;;;;;4987441;28;20875;-71
2023/03/04 11:13:11;;;;;;;35.77;27.27;;;5.20;99.90;;;;;;4987536;28;20455;-71
2023/03/04 11:15:51;;;;;;;37.70;27.57;;;5.20;99.90;;;;;;4987818;28;20554;-71
2023/03/04 11:18:22;;;;;;;42.70;30.63;;;5.10;99.90;;;;;;4988406;28;20456;-72
2023/03/04 11:20:49;;;;;;;36.33;27.30;;;4.90;99.90;;;;;;4987205;28;20415;-73
2023/03/04 11:23:38;;;;;;;39.90;27.83;;;4.90;99.90;;;;;;4987459;28;20921;-73
2023/03/04 11:26:11;;;;;;;39.67;29.07;;;5.00;99.90;;;;;;4987283;28;20455;-73
2023/03/04 11:28:58;;;;;;;44.20;31.50;;;5.10;99.90;;;;;;4987226;28;20412;-72
2023/03/04 11:31:32;;;;;;;43.77;29.50;;;5.10;99.90;;;;;;4987278;28;20440;-71
2023/03/04 11:34:06;;;;;;;43.33;30.30;;;5.00;99.90;;;;;;4987047;28;20407;-72
2023/03/04 11:36:44;;;;;;;44.17;29.53;;;5.10;99.90;;;;;;4987650;28;20419;-72
2023/03/04 11:39:20;;;;;;;40.60;29.70;;;5.10;99.90;;;;;;4972843;28;20474;-72
2023/03/04 11:41:55;;;;;;;41.60;28.00;;;5.10;99.90;;;;;;4978346;28;20727;-72
2023/03/04 11:44:21;;;;;;;41.87;29.63;;;5.10;99.90;;;;;;4986386;28;20411;-71
2023/03/04 11:47:11;;;;;;;42.43;31.70;;;5.10;99.90;;;;;;4986802;28;20948;-73
2023/03/04 11:50:17;;;;;;;41.53;30.00;;;5.00;99.90;;;;;;4986929;28;20272;-71
2023/03/04 11:52:48;;;;;;;42.67;31.03;;;5.20;99.90;;;;;;4986767;28;20430;-72
2023/03/04 11:55:25;;;;;;;45.37;29.70;;;5.40;99.90;;;;;;4986790;28;20408;-72
2023/03/04 11:58:08;;;;;;;43.27;29.50;;;5.40;99.90;;;;;;4987512;28;20502;-72
2023/03/04 12:01:02;;;;;;;49.77;33.80;;;5.40;99.90;;;;;;4984426;28;20427;-73
2023/03/04 12:03:49;;;;;;;49.23;32.23;;;5.40;99.90;;;;;;4986813;28;20411;-73
2023/03/04 12:06:17;;;;;;;43.90;32.57;;;5.40;99.90;;;;;;4986385;28;20887;-73
2023/03/04 12:09:02;;;;;;;42.87;32.40;;;5.50;99.90;;;;;;4986931;28;20946;-71
2023/03/04 12:11:38;;;;;;;49.67;34.40;;;5.30;99.90;;;;;;4968627;28;20448;-72
2023/03/04 12:14:12;;;;;;;46.23;32.37;;;5.30;99.90;;;;;;4985631;28;20451;-73
2023/03/04 12:16:51;;;;;;;44.53;31.50;;;5.20;99.90;;;;;;4986602;28;20850;-71
2023/03/04 12:19:23;;;;;;;48.30;33.50;;;5.40;99.90;;;;;;4986412;28;20451;-72
2023/03/04 12:22:26;;;;;;;47.73;31.90;;;5.20;99.90;;;;;;4986408;28;20442;-72
2023/03/04 12:25:23;;;;;;;46.57;32.47;;;5.10;99.90;;;;;;4986811;28;20463;-71
2023/03/04 12:27:55;;;;;;;44.20;29.37;;;5.40;99.90;;;;;;4987131;28;20423;-73
2023/03/04 12:30:36;;;;;;;47.10;31.63;;;5.20;99.90;;;;;;4986841;28;20426;-72
2023/03/04 12:33:07;;;;;;;40.27;30.20;;;5.20;99.90;;;;;;4986237;28;20408;-74
2023/03/04 12:36:01;;;;;;;45.20;32.10;;;5.10;99.90;;;;;;4976577;28;21048;-72
2023/03/04 12:38:58;;;;;;;42.90;31.50;;;5.00;99.90;;;;;;4986284;28;20470;-72
2023/03/04 12:41:59;;;;;;;43.73;30.47;;;4.90;99.90;;;;;;4914973;28;20483;-72
2023/03/04 12:44:26;;;;;;;47.30;33.10;;;5.10;99.90;;;;;;4889328;29;20435;-73